• Join FlightAware (Why Join?)
  • Login
  • US Flag 
04:40AM EDT


 

Airport Tracker/Info


-or-


 

Live Flight TrackerFlight Track Log ✈ DAL1578 ✈ 20-May-2013 ✈ KLAX - KSLC

Flight Track Log - Related Links

Times and Time Zones

All times are in EDT time to prevent confusion due to time zone crossing. See the DAL1578 flight status page for this flight to view local times or setup timezone preferences in your user account.

Time Position Orientation Groundspeed Altitude Reporting Facility
EDT Latitude Longitude Course Direction KTS MPH feet Rate Location/Type
09:32AM 33.9167 -118.4667 40° Northeast 214 246 2,400  Level Southern California TRACON
09:33AM 33.8931 -118.5081 236° Southwest 252 290 3,900 2,820 Climbing Los Angeles Center
09:34AM 33.7704 -118.6272 132° Southeast  Level FlightAware Approximate
09:34AM 33.8239 -118.5547 209° Southwest 277 319 7,500  Level Los Angeles Center
09:35AM 33.6864 -118.5205 134° Southeast  Level FlightAware Approximate
09:35AM 33.7442 -118.5331 167° South 297 342 10,100  Level Los Angeles Center
09:36AM 33.6524 -118.3811 116° Southeast  Level FlightAware Approximate
09:36AM 33.6758 -118.4500 135° Southeast 326 375 12,900  Level Los Angeles Center
09:37AM 33.6333 -118.2395 90° East  Level FlightAware Approximate
09:37AM 33.6475 -118.3486 109° East 329 379 13,400  Level Los Angeles Center
09:38AM 33.6862 -118.1305 40° Northeast  Level FlightAware Approximate
09:38AM 33.6703 -118.2400 76° East 360 414 15,200  Level Los Angeles Center
09:39AM 33.7331 -118.1369 54° Northeast 387 445 17,200 2,100 Climbing Los Angeles Center
09:40AM 33.8217 -118.0172 48° Northeast 404 465 19,600 2,040 Climbing Los Angeles Center
09:41AM 33.9133 -117.9367 36° Northeast 409 471 21,500 1,860 Climbing Los Angeles Center
09:42AM 34.0078 -117.8514 37° Northeast 420 483 23,500 1,860 Climbing Los Angeles Center
09:43AM 34.1025 -117.7600 39° Northeast 435 501 25,400 1,680 Climbing Los Angeles Center
09:44AM 34.1861 -117.6472 48° Northeast 450 518 27,000 1,440 Climbing Los Angeles Center
09:45AM 34.2714 -117.5308 48° Northeast 462 532 28,400 1,380 Climbing Los Angeles Center
09:46AM 34.3594 -117.4108 48° Northeast 475 547 29,900 1,740 Climbing Los Angeles Center
09:47AM 34.4539 -117.2789 49° Northeast 473 544 32,000 1,500 Climbing Los Angeles Center
09:48AM 34.5397 -117.1606 49° Northeast 470 541 33,000 480 Climbing Los Angeles Center
09:49AM 34.6261 -117.0436 48° Northeast 471 542 33,000  Level Los Angeles Center
09:51AM 34.7114 -116.9236 49° Northeast 472 543 33,000 480 Level Los Angeles Center
09:52AM 34.8144 -116.7808 49° Northeast 473 544 34,000 960 Climbing Los Angeles Center
09:53AM 34.8981 -116.6633 49° Northeast 462 532 35,000 480 Climbing Los Angeles Center
09:54AM 34.9833 -116.5483 48° Northeast 461 531 35,000  Level Los Angeles Center
09:55AM 35.0719 -116.4372 46° Northeast 459 528 35,000  Level Los Angeles Center
09:56AM 35.1614 -116.3250 46° Northeast 463 533 35,000  Level Los Angeles Center
09:57AM 35.2536 -116.2114 45° Northeast 471 542 35,000  Level Los Angeles Center
09:58AM 35.3411 -116.0997 46° Northeast 462 532 35,000  Level Los Angeles Center
09:59AM 35.4472 -115.9653 46° Northeast 459 528 35,000  Level Los Angeles Center
10:00AM 35.5306 -115.8619 45° Northeast 461 531 35,000  Level Los Angeles Center
10:01AM 35.6186 -115.7511 46° Northeast 455 524 35,000  Level Los Angeles Center
10:02AM 35.7247 -115.6153 46° Northeast 459 528 35,000  Level Los Angeles Center
10:03AM 35.8119 -115.5058 45° Northeast 453 521 35,000  Level Los Angeles Center
10:04AM 35.8983 -115.3925 47° Northeast 455 524 35,000  Level Los Angeles Center
10:05AM 35.9867 -115.2800 46° Northeast 458 527 35,000  Level Los Angeles Center
10:06AM 36.0728 -115.1661 47° Northeast 459 528 35,000  Level Los Angeles Center
10:07AM 36.1611 -115.0539 46° Northeast 459 528 35,000  Level Los Angeles Center
10:08AM 36.2667 -114.9192 46° Northeast 457 526 35,000  Level Los Angeles Center
10:09AM 36.3556 -114.8064 46° Northeast 458 527 35,000  Level Los Angeles Center
10:10AM 36.4431 -114.6928 46° Northeast 458 527 35,000  Level Los Angeles Center
10:11AM 36.5317 -114.5778 46° Northeast 461 531 35,000  Level Los Angeles Center
10:12AM 36.6317 -114.4822 37° Northeast 454 522 35,000  Level Los Angeles Center
10:13AM 36.7144 -114.4139 33° Northeast 449 517 35,000 -60 Level Los Angeles Center
10:14AM 36.8386 -114.3114 33° Northeast 446 513 34,900 -480 Descending Los Angeles Center
10:15AM 36.9608 -114.2097 34° Northeast 440 506 34,100 -780 Descending Los Angeles Center
10:16AM 37.0608 -114.1256 34° Northeast 434 499 33,300 -540 Descending Los Angeles Center
10:17AM 37.1614 -114.0417 34° Northeast 436 502 33,000 -240 Descending Los Angeles Center
10:18AM 37.2122 -114.0017 32° Northeast 435 501 33,000  Level Salt Lake Center
10:19AM 37.3133 -113.9147 34° Northeast 438 504 33,000  Level Salt Lake Center
10:20AM 37.4108 -113.8322 34° Northeast 425 489 33,000  Level Salt Lake Center
10:21AM 37.4978 -113.7586 34° Northeast 382 440 33,000  Level Salt Lake Center
10:22AM 37.6058 -113.6664 34° Northeast 388 447 33,000  Level Salt Lake Center
10:23AM 37.6978 -113.5875 34° Northeast 394 453 33,000  Level Salt Lake Center
10:24AM 37.7917 -113.5081 34° Northeast 401 461 33,000  Level Salt Lake Center
10:25AM 37.8839 -113.4267 35° Northeast 401 461 33,000  Level Salt Lake Center
10:26AM 37.9756 -113.3478 34° Northeast 399 459 33,000  Level Salt Lake Center
10:27AM 38.0669 -113.2689 34° Northeast 396 456 33,000  Level Salt Lake Center
10:28AM 38.1575 -113.1906 34° Northeast 393 452 33,000 -540 Level Salt Lake Center
10:29AM 38.2467 -113.1100 35° Northeast 391 450 31,900 -1,020 Descending Salt Lake Center
10:30AM 38.2936 -112.9811 65° Northeast 404 465 31,000 -480 Descending Salt Lake Center
10:31AM 38.2603 -112.8008 103° East 436 502 31,000  Level Salt Lake Center
10:32AM 38.2225 -112.6508 108° East 441 507 31,000  Level Salt Lake Center
10:33AM 38.2247 -112.5033 89° East 422 486 31,000  Level Salt Lake Center
10:34AM 38.2803 -112.3761 61° Northeast 413 475 31,000  Level Salt Lake Center
10:35AM 38.3389 -112.2517 59° Northeast 410 472 31,000  Level Salt Lake Center
10:36AM 38.4017 -112.1358 55° Northeast 401 461 31,000  Level Salt Lake Center
10:37AM 38.5033 -112.1228 North 367 422 31,000  Level Salt Lake Center
10:38AM 38.5981 -112.1689 339° North 362 417 31,000  Level Salt Lake Center
10:39AM 38.7175 -112.1922 351° North 371 427 31,000  Level Salt Lake Center
10:40AM 38.8222 -112.1853 North 374 430 31,000  Level Salt Lake Center
10:41AM 38.9267 -112.1792 North 375 432 31,000  Level Salt Lake Center
10:42AM 39.0311 -112.1731 North 377 434 31,000 -480 Level Salt Lake Center
10:43AM 39.1353 -112.1667 North 375 432 30,100 -1,440 Descending Salt Lake Center
10:45AM 39.2447 -112.1622 North 373 429 28,100 -1,860 Descending Salt Lake Center
10:46AM 39.3464 -112.1553 North 367 422 26,300 -1,800 Descending Salt Lake Center
10:47AM 39.4469 -112.1500 North 364 419 24,500 -1,920 Descending Salt Lake Center
10:48AM 39.5644 -112.1417 North 355 409 22,400 -1,860 Descending Salt Lake Center
10:49AM 39.6586 -112.1367 North 345 397 20,700 -1,680 Descending Salt Lake Center
10:50AM 39.7525 -112.1319 North 339 390 19,000 -1,620 Descending Salt Lake Center
10:51AM 39.8425 -112.1275 North 329 379 17,400 -1,680 Descending Salt Lake Center
10:51AM 39.8708 -112.1367 346° North 316 364 16,800 -1,500 Descending Salt Lake Center
10:52AM 39.9239 -112.1222 12° North 294 338 15,900 -1,320 Descending Salt Lake Center
10:53AM 40.0011 -112.1100 North 283 326 14,500 -1,500 Descending Salt Lake Center
10:54AM 40.0850 -112.0875 12° North 282 325 12,900 -1,320 Descending Salt Lake Center
10:55AM 40.1517 -112.0653 14° North 247 284 11,900 -900 Descending Salt Lake Center
10:56AM 40.2136 -112.0333 21° North 210 242 11,100 -960 Descending Salt Lake Center
10:57AM 40.2639 -112.0219 10° North 203 234 10,000 -600 Descending Salt Lake Center
10:58AM 40.3158 -112.0017 17° North 187 215 10,000  Level Salt Lake Center
10:59AM 40.3611 -111.9694 28° Northeast 180 207 10,000 -300 Level Salt Lake Center
11:00AM 40.4106 -111.9583 10° North 179 206 9,400 -540 Descending Salt Lake Center
11:01AM 40.4586 -111.9617 357° North 175 201 9,000 -240 Descending Salt Lake Center
11:02AM 40.5072 -111.9678 355° North 176 203 9,000 -240 Level Salt Lake Center
11:03AM 40.5578 -111.9733 355° North 179 206 8,600 -420 Descending Salt Lake Center